createdAt,value
2019-03-25T00:02:04.864Z,1.60
2019-03-25T00:04:33.762Z,1.60
2019-03-25T00:07:02.755Z,1.60
2019-03-25T00:09:31.744Z,1.50
2019-03-25T00:12:00.740Z,1.50
2019-03-25T00:14:29.729Z,1.50
2019-03-25T00:16:58.605Z,1.50
2019-03-25T00:19:27.508Z,1.50
2019-03-25T00:21:56.410Z,1.50
2019-03-25T00:24:25.433Z,1.50
2019-03-25T00:26:54.390Z,1.50
2019-03-25T00:29:23.383Z,1.50
2019-03-25T00:31:52.376Z,1.50
2019-03-25T00:34:21.367Z,1.50
2019-03-25T00:36:50.363Z,1.50
2019-03-25T00:39:19.355Z,1.50
2019-03-25T00:41:48.348Z,1.50
2019-03-25T00:44:17.340Z,1.50
2019-03-25T00:46:46.333Z,1.40
2019-03-25T00:49:15.326Z,1.40
2019-03-25T00:51:44.318Z,1.40
2019-03-25T00:54:13.312Z,1.40
2019-03-25T00:56:42.138Z,1.40
2019-03-25T00:59:11.092Z,1.30
2019-03-25T01:01:39.989Z,1.30
2019-03-25T01:04:09.384Z,1.30
2019-03-25T01:06:38.280Z,1.40
2019-03-25T01:09:07.577Z,1.30
2019-03-25T01:11:36.570Z,1.30
2019-03-25T01:14:05.564Z,1.30
2019-03-25T01:16:34.557Z,1.30
2019-03-25T01:19:03.550Z,1.30
2019-03-25T01:21:32.435Z,1.30
2019-03-25T01:24:01.328Z,1.30
2019-03-25T01:26:30.200Z,1.30
2019-03-25T01:28:59.216Z,1.30
2019-03-25T01:31:28.209Z,1.30
2019-03-25T01:33:57.202Z,1.30
2019-03-25T01:36:26.200Z,1.30
2019-03-25T01:38:55.192Z,1.30
2019-03-25T01:41:24.181Z,1.30
2019-03-25T01:43:53.175Z,1.30
2019-03-25T01:46:22.169Z,1.30
2019-03-25T01:48:50.984Z,1.20
2019-03-25T01:51:19.944Z,1.30
2019-03-25T01:53:48.838Z,1.20
2019-03-25T01:56:17.833Z,1.30
2019-03-25T01:58:46.892Z,1.30
2019-03-25T02:01:15.819Z,1.30
2019-03-25T02:03:44.648Z,1.30
2019-03-25T02:06:13.596Z,1.40
2019-03-25T02:08:42.490Z,1.30
2019-03-25T02:11:11.486Z,1.30
2019-03-25T02:13:40.477Z,1.40
2019-03-25T02:16:09.512Z,1.50
2019-03-25T02:18:38.462Z,1.60
2019-03-25T02:21:08.971Z,1.60
2019-03-25T02:23:37.821Z,1.60
2019-03-25T02:26:06.665Z,1.50
2019-03-25T02:28:35.511Z,1.50
2019-03-25T02:31:04.455Z,1.50
2019-03-25T02:33:33.294Z,1.50
2019-03-25T02:36:02.132Z,1.50
2019-03-25T02:38:30.978Z,1.40
2019-03-25T02:40:59.820Z,1.40
2019-03-25T02:43:28.667Z,1.50
2019-03-25T02:45:57.572Z,1.50
2019-03-25T02:48:26.417Z,1.50
2019-03-25T02:50:55.263Z,1.40
2019-03-25T02:53:24.109Z,1.40
2019-03-25T02:55:52.961Z,1.40
2019-03-25T02:58:21.901Z,1.30
2019-03-25T03:00:50.721Z,1.20
2019-03-25T03:03:19.562Z,1.30
2019-03-25T03:05:48.512Z,1.20
2019-03-25T03:08:17.406Z,1.20
2019-03-25T03:10:46.253Z,1.20
2019-03-25T03:13:15.098Z,1.40
2019-03-25T03:15:43.946Z,1.50
2019-03-25T03:18:12.792Z,1.50
2019-03-25T03:20:41.644Z,1.50
2019-03-25T03:23:10.508Z,1.40
2019-03-25T03:25:39.357Z,1.40
2019-03-25T03:28:08.197Z,1.50
2019-03-25T03:30:37.113Z,1.50
2019-03-25T03:33:06.111Z,1.50
2019-03-25T03:35:34.953Z,1.50
2019-03-25T03:38:03.804Z,1.50
2019-03-25T03:40:32.755Z,1.50
2019-03-25T03:43:01.614Z,1.60
2019-03-25T03:45:30.461Z,1.60
2019-03-25T03:47:59.364Z,1.60
2019-03-25T03:50:28.605Z,1.50
2019-03-25T03:52:57.845Z,1.50
2019-03-25T03:55:27.002Z,1.50
2019-03-25T03:57:57.247Z,1.40
2019-03-25T04:00:34.037Z,1.40
2019-03-25T04:03:02.880Z,1.40
2019-03-25T04:05:33.711Z,1.50
2019-03-25T04:08:02.453Z,1.40
2019-03-25T04:10:31.446Z,1.40
2019-03-25T04:13:00.748Z,1.40
2019-03-25T04:15:32.774Z,1.50
2019-03-25T04:18:01.805Z,1.50
2019-03-25T04:20:30.667Z,1.50
2019-03-25T04:22:59.597Z,1.40
2019-03-25T04:25:31.321Z,1.40
2019-03-25T04:28:00.205Z,1.40
2019-03-25T04:30:29.050Z,1.40
2019-03-25T04:32:57.897Z,1.40
2019-03-25T04:35:26.744Z,1.40
2019-03-25T04:37:56.600Z,1.50
2019-03-25T04:40:25.740Z,1.50
2019-03-25T04:42:54.599Z,1.60
2019-03-25T04:45:23.427Z,1.60
2019-03-25T04:47:52.271Z,1.60
2019-03-25T04:50:21.115Z,1.60
2019-03-25T04:52:49.963Z,1.60
2019-03-25T04:55:18.799Z,1.60
2019-03-25T04:57:47.847Z,1.70
2019-03-25T05:00:19.703Z,1.70
2019-03-25T05:02:48.596Z,1.80
2019-03-25T05:05:17.592Z,1.80
2019-03-25T05:07:46.416Z,2.00
2019-03-25T05:10:15.470Z,2.00
2019-03-25T05:12:44.308Z,2.00
2019-03-25T05:15:13.284Z,2.20
2019-03-25T05:17:42.124Z,2.30
2019-03-25T05:20:10.974Z,2.30
2019-03-25T05:22:39.818Z,2.50
2019-03-25T05:25:08.859Z,2.60
2019-03-25T05:27:37.709Z,2.70
2019-03-25T05:30:08.759Z,2.80
2019-03-25T05:32:37.613Z,2.40
2019-03-25T05:35:07.256Z,2.40
2019-03-25T05:37:36.177Z,2.40
2019-03-25T05:40:06.221Z,2.30
2019-03-25T05:42:35.130Z,2.50
2019-03-25T05:45:05.552Z,2.70
2019-03-25T05:47:34.397Z,3.20
2019-03-25T05:50:03.236Z,3.80
2019-03-25T05:52:32.115Z,4.40
2019-03-25T05:55:00.952Z,4.80
2019-03-25T05:57:29.797Z,4.90
2019-03-25T05:59:58.736Z,4.80
2019-03-25T06:02:27.580Z,4.60
2019-03-25T06:04:56.541Z,4.40
2019-03-25T06:07:25.386Z,5.30
2019-03-25T06:09:54.231Z,4.70
2019-03-25T06:12:23.088Z,4.40
2019-03-25T06:14:51.941Z,4.60
2019-03-25T06:17:20.814Z,6.00
2019-03-25T06:19:49.660Z,7.40
2019-03-25T06:22:18.544Z,7.30
2019-03-25T06:24:47.715Z,9.20
2019-03-25T06:27:16.581Z,10.40
2019-03-25T06:29:45.453Z,10.70
2019-03-25T06:32:14.309Z,9.70
2019-03-25T06:34:43.167Z,9.30
2019-03-25T06:37:12.003Z,10.00
2019-03-25T06:39:40.862Z,10.10
2019-03-25T06:42:10.746Z,10.50
2019-03-25T06:44:39.592Z,10.10
2019-03-25T06:47:08.444Z,10.90
2019-03-25T06:49:37.308Z,11.20
2019-03-25T06:52:06.157Z,12.40
2019-03-25T06:54:35.028Z,12.20
2019-03-25T06:57:03.897Z,12.00
2019-03-25T06:59:32.728Z,11.30
2019-03-25T07:02:01.606Z,10.60
2019-03-25T07:04:30.434Z,9.70
2019-03-25T07:06:59.368Z,10.40
2019-03-25T07:09:28.204Z,11.70
2019-03-25T07:11:57.389Z,13.10
2019-03-25T07:14:26.429Z,13.40
2019-03-25T07:16:55.275Z,12.70
2019-03-25T07:19:24.162Z,11.70
2019-03-25T07:21:53.012Z,12.60
2019-03-25T07:24:21.860Z,13.30
2019-03-25T07:26:50.712Z,12.70
2019-03-25T07:29:19.560Z,13.50
2019-03-25T07:31:48.437Z,13.70
2019-03-25T07:34:17.285Z,14.70
2019-03-25T07:36:46.135Z,14.80
2019-03-25T07:39:14.995Z,14.90
2019-03-25T07:41:43.873Z,14.90
2019-03-25T07:44:12.828Z,14.60
2019-03-25T07:46:41.684Z,14.80
2019-03-25T07:49:10.537Z,15.30
2019-03-25T07:51:39.400Z,15.80
2019-03-25T07:54:08.276Z,16.10
2019-03-25T07:56:37.156Z,15.00
2019-03-25T07:59:06.073Z,14.80
2019-03-25T08:01:34.974Z,15.80
2019-03-25T08:04:03.854Z,15.60
2019-03-25T08:06:32.682Z,15.30
2019-03-25T08:09:03.947Z,14.50
2019-03-25T08:11:32.080Z,15.00
2019-03-25T08:14:00.919Z,14.00
2019-03-25T08:16:29.772Z,11.80
2019-03-25T08:18:58.632Z,11.10
2019-03-25T08:21:27.544Z,10.90
2019-03-25T08:23:56.393Z,10.90
2019-03-25T08:26:25.241Z,11.80
2019-03-25T08:28:54.105Z,11.80
2019-03-25T08:31:23.148Z,11.50
2019-03-25T08:33:52.016Z,11.10
2019-03-25T08:36:20.867Z,10.50
2019-03-25T08:38:49.715Z,10.00
2019-03-25T08:41:18.625Z,9.50
2019-03-25T08:43:50.195Z,9.10
2019-03-25T08:46:19.042Z,8.90
2019-03-25T08:48:47.892Z,8.60
2019-03-25T08:51:16.740Z,8.30
2019-03-25T08:53:45.597Z,7.90
2019-03-25T08:56:14.444Z,8.10
2019-03-25T08:58:43.320Z,7.90
2019-03-25T09:01:12.180Z,7.80
2019-03-25T09:03:41.016Z,7.60
2019-03-25T09:06:09.875Z,7.60
2019-03-25T09:08:38.721Z,7.50
2019-03-25T09:11:07.600Z,7.30
2019-03-25T09:13:36.464Z,7.10
2019-03-25T09:16:05.322Z,6.90
2019-03-25T09:18:34.607Z,7.00
2019-03-25T09:21:03.552Z,6.90
2019-03-25T09:23:32.433Z,6.90
2019-03-25T09:26:01.277Z,7.10
2019-03-25T09:28:30.123Z,7.50
2019-03-25T09:31:07.627Z,8.10
2019-03-25T09:33:36.459Z,9.30
2019-03-25T09:36:05.372Z,10.70
2019-03-25T09:38:34.280Z,12.10
2019-03-25T09:41:03.342Z,11.50
2019-03-25T09:43:32.188Z,10.90
2019-03-25T09:46:01.038Z,10.30
2019-03-25T09:48:30.040Z,10.10
2019-03-25T09:50:58.892Z,9.80
2019-03-25T09:53:27.733Z,10.40
2019-03-25T09:55:56.600Z,10.40
2019-03-25T09:58:35.857Z,9.90
2019-03-25T10:00:55.992Z,10.20
2019-03-25T10:03:24.957Z,10.80
2019-03-25T10:05:53.931Z,10.30
2019-03-25T10:08:22.759Z,9.80
2019-03-25T10:10:51.600Z,8.90
2019-03-25T10:13:20.470Z,8.70
2019-03-25T10:15:49.420Z,8.60
2019-03-25T10:18:18.268Z,8.70
2019-03-25T10:20:47.117Z,8.90
2019-03-25T10:23:15.967Z,9.00
2019-03-25T10:25:44.841Z,8.90
2019-03-25T10:28:13.687Z,8.80
2019-03-25T10:30:42.532Z,8.80
2019-03-25T10:33:11.438Z,9.10
2019-03-25T10:35:40.237Z,9.00
2019-03-25T10:38:19.158Z,8.80
2019-03-25T10:40:39.609Z,8.80
2019-03-25T10:43:08.461Z,9.00
2019-03-25T10:45:37.304Z,9.10
2019-03-25T10:48:06.148Z,9.00
2019-03-25T10:50:35.321Z,8.60
2019-03-25T10:53:04.273Z,8.30
2019-03-25T10:55:33.154Z,8.30
2019-03-25T10:58:01.965Z,8.40
2019-03-25T11:00:30.807Z,8.20
2019-03-25T11:02:59.697Z,8.20
2019-03-25T11:05:28.542Z,8.40
2019-03-25T11:07:57.380Z,8.60
2019-03-25T11:10:26.236Z,8.70
2019-03-25T11:12:55.080Z,8.50
2019-03-25T11:15:23.947Z,8.40
2019-03-25T11:17:53.002Z,8.40
2019-03-25T11:20:21.837Z,8.60
2019-03-25T11:22:50.689Z,8.50
2019-03-25T11:25:19.541Z,8.60
2019-03-25T11:27:54.253Z,8.70
2019-03-25T11:30:21.852Z,8.50
2019-03-25T11:32:50.703Z,8.50
2019-03-25T11:35:19.560Z,8.30
2019-03-25T11:37:48.400Z,8.00
2019-03-25T11:40:17.375Z,8.00
2019-03-25T11:42:46.225Z,8.10
2019-03-25T11:45:15.376Z,8.20
2019-03-25T11:47:44.289Z,8.30
2019-03-25T11:50:13.432Z,8.30
2019-03-25T11:52:56.002Z,8.50
2019-03-25T11:55:17.754Z,8.40
2019-03-25T11:57:46.852Z,8.20
2019-03-25T12:00:18.636Z,8.00
2019-03-25T12:02:47.526Z,7.90
2019-03-25T12:05:16.476Z,7.90
2019-03-25T12:07:45.339Z,7.90
2019-03-25T12:10:14.526Z,8.10
2019-03-25T12:12:43.361Z,8.20
2019-03-25T12:15:12.304Z,8.10
2019-03-25T12:17:41.192Z,7.90
2019-03-25T12:20:10.949Z,7.80
2019-03-25T12:22:39.814Z,8.10
2019-03-25T12:25:08.760Z,8.00
2019-03-25T12:27:37.618Z,7.70
2019-03-25T12:30:09.392Z,7.20
2019-03-25T12:32:38.236Z,6.70
2019-03-25T12:35:08.620Z,6.70
2019-03-25T12:37:37.527Z,6.60
2019-03-25T12:40:07.900Z,6.50
2019-03-25T12:42:37.067Z,6.50
2019-03-25T12:45:09.254Z,6.40
2019-03-25T12:47:38.132Z,6.10
2019-03-25T12:50:09.224Z,6.10
2019-03-25T12:52:38.067Z,6.40
2019-03-25T12:55:08.202Z,6.60
2019-03-25T12:57:37.056Z,6.80
2019-03-25T13:00:10.460Z,6.70
2019-03-25T13:02:39.313Z,6.70
2019-03-25T13:05:08.349Z,6.80
2019-03-25T13:07:37.227Z,6.60
2019-03-25T13:10:07.285Z,6.40
2019-03-25T13:12:36.154Z,6.30
2019-03-25T13:15:09.406Z,6.20
2019-03-25T13:17:38.252Z,6.20
2019-03-25T13:20:07.359Z,6.40
2019-03-25T13:22:36.227Z,6.60
2019-03-25T13:25:05.674Z,6.50
2019-03-25T13:27:34.595Z,6.60
2019-03-25T13:30:03.749Z,6.50
2019-03-25T13:32:32.590Z,6.30
2019-03-25T13:35:01.457Z,6.10
2019-03-25T13:37:30.308Z,6.30
2019-03-25T13:39:59.156Z,6.40
2019-03-25T13:42:28.011Z,6.40
2019-03-25T13:44:57.740Z,6.30
2019-03-25T13:47:26.643Z,6.60
2019-03-25T13:49:55.488Z,6.60
2019-03-25T13:52:24.353Z,6.70
2019-03-25T13:54:53.180Z,6.60
2019-03-25T13:57:23.020Z,6.50
2019-03-25T14:00:02.671Z,6.50
2019-03-25T14:02:24.271Z,6.70
2019-03-25T14:04:52.872Z,6.90
2019-03-25T14:07:21.732Z,7.10
2019-03-25T14:09:50.572Z,7.30
2019-03-25T14:12:19.653Z,7.20
2019-03-25T14:14:48.492Z,7.20
2019-03-25T14:17:17.347Z,7.20
2019-03-25T14:19:46.199Z,7.20
2019-03-25T14:22:15.036Z,7.30
2019-03-25T14:24:44.003Z,7.40
2019-03-25T14:27:12.857Z,7.20
2019-03-25T14:29:41.727Z,7.10
2019-03-25T14:32:10.563Z,7.10
2019-03-25T14:34:44.625Z,7.20
2019-03-25T14:37:11.514Z,7.20
2019-03-25T14:39:40.320Z,7.10
2019-03-25T14:42:09.173Z,6.70
2019-03-25T14:44:38.035Z,6.70
2019-03-25T14:47:06.873Z,6.80
2019-03-25T14:49:35.753Z,6.80
2019-03-25T14:52:04.713Z,6.60
2019-03-25T14:54:33.567Z,6.50
2019-03-25T14:57:02.408Z,6.50
2019-03-25T14:59:32.365Z,6.40
2019-03-25T15:02:01.249Z,6.50
2019-03-25T15:04:30.084Z,6.50
2019-03-25T15:06:58.934Z,6.70
2019-03-25T15:09:27.778Z,6.30
2019-03-25T15:11:56.672Z,6.00
2019-03-25T15:14:25.512Z,5.80
2019-03-25T15:16:54.361Z,5.80
2019-03-25T15:19:23.216Z,5.70
2019-03-25T15:21:52.104Z,5.60
2019-03-25T15:24:20.952Z,5.50
2019-03-25T15:26:49.825Z,5.50
2019-03-25T15:29:18.679Z,5.50
2019-03-25T15:31:47.516Z,5.40
2019-03-25T15:34:16.384Z,5.30
2019-03-25T15:36:45.330Z,5.30
2019-03-25T15:39:14.172Z,5.30
2019-03-25T15:41:43.025Z,5.20
2019-03-25T15:44:11.876Z,5.20
2019-03-25T15:46:40.836Z,5.10
2019-03-25T15:49:09.687Z,4.90
2019-03-25T15:51:38.560Z,4.80
2019-03-25T15:54:07.404Z,4.70
2019-03-25T15:56:36.252Z,4.60
2019-03-25T15:59:05.094Z,4.40
2019-03-25T16:01:34.906Z,4.30
2019-03-25T16:04:03.779Z,4.20
2019-03-25T16:06:32.623Z,4.10
2019-03-25T16:09:01.464Z,4.00
2019-03-25T16:11:30.308Z,4.00
2019-03-25T16:13:59.157Z,3.80
2019-03-25T16:16:28.028Z,3.80
2019-03-25T16:18:56.921Z,3.90
2019-03-25T16:21:25.766Z,3.70
2019-03-25T16:23:54.606Z,3.80
2019-03-25T16:26:23.575Z,3.70
2019-03-25T16:28:52.608Z,3.60
2019-03-25T16:31:21.448Z,3.50
2019-03-25T16:33:50.332Z,3.50
2019-03-25T16:36:19.266Z,3.40
2019-03-25T16:38:48.086Z,3.40
2019-03-25T16:41:16.976Z,3.40
2019-03-25T16:43:45.816Z,3.40
2019-03-25T16:46:14.665Z,3.40
2019-03-25T16:48:43.522Z,3.40
2019-03-25T16:51:12.345Z,3.40
2019-03-25T16:53:41.505Z,3.30
2019-03-25T16:56:10.402Z,3.40
2019-03-25T16:58:39.217Z,3.40
2019-03-25T17:01:10.214Z,3.40
2019-03-25T17:03:39.572Z,3.30
2019-03-25T17:06:08.452Z,3.40
2019-03-25T17:08:37.294Z,3.30
2019-03-25T17:11:06.161Z,3.40
2019-03-25T17:13:34.973Z,3.40
2019-03-25T17:16:03.825Z,3.40
2019-03-25T17:18:32.696Z,3.40
2019-03-25T17:21:01.537Z,3.50
2019-03-25T17:23:30.375Z,3.50
2019-03-25T17:25:59.220Z,3.40
2019-03-25T17:28:28.073Z,3.30
2019-03-25T17:30:56.988Z,3.40
2019-03-25T17:33:25.833Z,3.30
2019-03-25T17:35:54.681Z,3.30
2019-03-25T17:38:23.601Z,3.30
2019-03-25T17:40:52.416Z,3.30
2019-03-25T17:43:21.286Z,3.20
2019-03-25T17:45:50.132Z,3.20
2019-03-25T17:48:18.980Z,3.30
2019-03-25T17:50:47.828Z,3.30
2019-03-25T17:53:16.680Z,3.30
2019-03-25T17:55:45.609Z,3.30
2019-03-25T17:58:14.457Z,3.30
2019-03-25T18:00:52.052Z,3.30
2019-03-25T18:03:21.006Z,3.30
2019-03-25T18:05:50.823Z,3.30
2019-03-25T18:08:19.672Z,3.20
2019-03-25T18:10:48.517Z,3.20
2019-03-25T18:13:22.405Z,3.10
2019-03-25T18:15:47.894Z,3.10
2019-03-25T18:18:16.751Z,3.00
2019-03-25T18:20:45.592Z,3.00
2019-03-25T18:23:14.468Z,2.90
2019-03-25T18:25:43.338Z,2.90
2019-03-25T18:28:12.176Z,2.90
2019-03-25T18:30:41.024Z,2.80
2019-03-25T18:33:09.870Z,2.80
2019-03-25T18:35:38.814Z,2.80
2019-03-25T18:38:07.641Z,2.70
2019-03-25T18:40:36.487Z,2.60
2019-03-25T18:43:05.335Z,2.60
2019-03-25T18:45:34.229Z,2.50
2019-03-25T18:48:03.058Z,2.40
2019-03-25T18:50:31.958Z,2.40
2019-03-25T18:53:00.789Z,2.30
2019-03-25T18:55:29.852Z,2.20
2019-03-25T18:57:58.953Z,2.10
2019-03-25T19:00:32.336Z,2.10
2019-03-25T19:03:01.461Z,2.10
2019-03-25T19:05:30.709Z,2.00
2019-03-25T19:08:03.959Z,2.00
2019-03-25T19:10:33.097Z,2.00
2019-03-25T19:13:01.924Z,1.90
2019-03-25T19:15:30.797Z,1.90
2019-03-25T19:17:59.860Z,1.80
2019-03-25T19:20:28.663Z,1.80
2019-03-25T19:22:57.547Z,1.70
2019-03-25T19:25:26.548Z,1.70
2019-03-25T19:27:55.860Z,1.70
2019-03-25T19:30:24.692Z,1.70
2019-03-25T19:32:53.520Z,1.70
2019-03-25T19:35:22.417Z,1.70
2019-03-25T19:37:51.233Z,1.60
2019-03-25T19:40:21.631Z,1.60
2019-03-25T19:42:50.539Z,1.60
2019-03-25T19:45:19.503Z,1.60
2019-03-25T19:47:48.341Z,1.70
2019-03-25T19:50:18.884Z,1.60
2019-03-25T19:52:47.752Z,1.60
2019-03-25T19:55:16.591Z,1.60
2019-03-25T19:57:45.458Z,1.60
2019-03-25T20:00:14.884Z,1.50
2019-03-25T20:02:43.750Z,1.50
2019-03-25T20:05:13.592Z,1.40
2019-03-25T20:07:42.490Z,1.40
2019-03-25T20:10:16.970Z,1.40
2019-03-25T20:12:45.867Z,1.30
2019-03-25T20:15:14.843Z,1.30
2019-03-25T20:17:43.680Z,1.30
2019-03-25T20:20:12.555Z,1.30
2019-03-25T20:22:41.550Z,1.30
2019-03-25T20:25:10.546Z,1.40
2019-03-25T20:27:39.399Z,1.50
2019-03-25T20:30:12.393Z,1.60
2019-03-25T20:32:41.211Z,1.70
2019-03-25T20:35:10.071Z,1.80
2019-03-25T20:37:38.920Z,1.80
2019-03-25T20:40:10.945Z,1.90
2019-03-25T20:42:39.775Z,1.90
2019-03-25T20:45:09.259Z,1.90
2019-03-25T20:47:38.214Z,1.90
2019-03-25T20:50:07.546Z,2.00
2019-03-25T20:52:36.418Z,2.00
2019-03-25T20:55:07.227Z,2.00
2019-03-25T20:57:36.455Z,2.00
2019-03-25T21:00:11.575Z,2.00
2019-03-25T21:02:45.300Z,2.00
2019-03-25T21:05:12.140Z,1.80
2019-03-25T21:07:41.070Z,1.80
2019-03-25T21:10:10.310Z,1.70
2019-03-25T21:12:39.219Z,1.60
2019-03-25T21:15:09.077Z,1.60
2019-03-25T21:17:37.935Z,1.60
2019-03-25T21:20:08.894Z,1.60
2019-03-25T21:22:37.842Z,1.70
2019-03-25T21:25:07.197Z,1.70
2019-03-25T21:27:36.129Z,1.70
2019-03-25T21:30:06.895Z,1.70
2019-03-25T21:32:35.796Z,1.70
2019-03-25T21:35:06.419Z,1.70
2019-03-25T21:37:35.525Z,1.70
2019-03-25T21:40:06.887Z,1.70
2019-03-25T21:42:35.747Z,1.80
2019-03-25T21:45:07.112Z,1.80
2019-03-25T21:47:36.393Z,1.90
2019-03-25T21:50:11.967Z,1.90
2019-03-25T21:53:01.376Z,1.90
2019-03-25T21:55:17.927Z,1.90
2019-03-25T21:57:46.810Z,1.90
2019-03-25T22:00:15.983Z,1.90
2019-03-25T22:02:44.834Z,1.90
2019-03-25T22:05:13.716Z,1.90
2019-03-25T22:07:42.631Z,2.00
2019-03-25T22:10:11.832Z,2.00
2019-03-25T22:12:40.728Z,2.00
2019-03-25T22:15:11.067Z,2.00
2019-03-25T22:17:40.300Z,2.00
2019-03-25T22:20:12.236Z,2.10
2019-03-25T22:22:41.108Z,2.10
2019-03-25T22:25:10.647Z,2.00
2019-03-25T22:27:39.486Z,2.00
2019-03-25T22:30:11.324Z,1.90
2019-03-25T22:32:40.172Z,2.00
2019-03-25T22:35:09.004Z,2.00
2019-03-25T22:37:37.887Z,2.00
2019-03-25T22:40:08.221Z,2.00
2019-03-25T22:42:37.069Z,2.00
2019-03-25T22:45:07.440Z,2.00
2019-03-25T22:47:36.582Z,2.00
2019-03-25T22:50:08.359Z,2.00
2019-03-25T22:52:37.223Z,2.00
2019-03-25T22:55:07.673Z,2.00
2019-03-25T22:57:36.516Z,1.90
2019-03-25T23:00:07.597Z,1.90
2019-03-25T23:02:36.434Z,1.80
2019-03-25T23:05:06.584Z,1.70
2019-03-25T23:07:35.469Z,1.60
2019-03-25T23:10:04.941Z,1.70
2019-03-25T23:12:34.076Z,1.80
2019-03-25T23:15:02.952Z,1.80
2019-03-25T23:17:31.791Z,1.80
2019-03-25T23:20:00.637Z,1.90
2019-03-25T23:22:29.506Z,1.90
2019-03-25T23:24:58.355Z,2.00
2019-03-25T23:27:27.208Z,2.00
2019-03-25T23:29:56.087Z,2.10
2019-03-25T23:32:24.943Z,2.10
2019-03-25T23:34:53.790Z,2.00
2019-03-25T23:37:22.700Z,2.00
2019-03-25T23:39:51.511Z,1.90
2019-03-25T23:42:20.363Z,2.00
2019-03-25T23:44:49.233Z,2.00
2019-03-25T23:47:18.076Z,2.00
2019-03-25T23:49:46.927Z,1.90
2019-03-25T23:52:15.793Z,1.90
2019-03-25T23:54:44.645Z,1.80
2019-03-25T23:57:13.493Z,1.90
2019-03-25T23:59:42.467Z,1.90
